createdAt,value
2023-03-14T00:01:12.019Z,93635.06
2023-03-14T00:03:39.510Z,93692.25
2023-03-14T00:06:08.822Z,93685.06
2023-03-14T00:08:37.308Z,93659.28
2023-03-14T00:11:09.586Z,93668.00
2023-03-14T00:13:37.425Z,93673.22
2023-03-14T00:16:06.260Z,93684.97
2023-03-14T00:18:35.453Z,93671.41
2023-03-14T00:21:04.497Z,93675.53
2023-03-14T00:23:33.436Z,93662.06
2023-03-14T00:26:02.089Z,93643.72
2023-03-14T00:28:29.781Z,93649.75
2023-03-14T00:30:57.427Z,93669.66
2023-03-14T00:33:25.189Z,93647.44
2023-03-14T00:35:58.628Z,93647.06
2023-03-14T00:38:26.881Z,93673.50
2023-03-14T00:40:54.899Z,93653.91
2023-03-14T00:43:23.493Z,93663.59
2023-03-14T00:45:51.011Z,93636.59
2023-03-14T00:48:18.743Z,93664.19
2023-03-14T00:50:46.873Z,93632.34
2023-03-14T00:53:15.797Z,93637.94
2023-03-14T00:55:44.849Z,93653.31
2023-03-14T00:58:13.137Z,93658.03
2023-03-14T01:00:41.399Z,93645.72
2023-03-14T01:03:09.719Z,93660.72
2023-03-14T01:05:37.859Z,93676.97
2023-03-14T01:08:07.617Z,93619.78
2023-03-14T01:10:39.542Z,93647.44
2023-03-14T01:13:07.084Z,93640.34
2023-03-14T01:15:34.714Z,93644.19
2023-03-14T01:18:02.250Z,93633.59
2023-03-14T01:20:29.725Z,93638.31
2023-03-14T01:22:57.386Z,93654.47
2023-03-14T01:25:24.874Z,93619.94
2023-03-14T01:27:53.667Z,93656.88
2023-03-14T01:30:21.136Z,93629.09
2023-03-14T01:32:48.757Z,93650.91
2023-03-14T01:35:16.435Z,93660.91
2023-03-14T01:37:43.915Z,93659.88
2023-03-14T01:40:14.916Z,93650.44
2023-03-14T01:42:47.080Z,93655.91
2023-03-14T01:45:53.864Z,93638.88
2023-03-14T01:48:22.784Z,93651.69
2023-03-14T01:50:50.509Z,93662.66
2023-03-14T01:53:22.154Z,93618.59
2023-03-14T01:55:50.088Z,93668.31
2023-03-14T01:58:18.769Z,93676.09
2023-03-14T02:00:46.306Z,93669.06
2023-03-14T02:03:18.430Z,93667.53
2023-03-14T02:05:48.181Z,93650.72
2023-03-14T02:08:18.452Z,93624.19
2023-03-14T02:10:48.622Z,93657.47
2023-03-14T02:13:18.364Z,93657.72
2023-03-14T02:15:46.132Z,93628.44
2023-03-14T02:18:16.403Z,93643.03
2023-03-14T02:20:51.890Z,93629.66
2023-03-14T02:23:26.506Z,93617.25
2023-03-14T02:25:58.677Z,93614.59
2023-03-14T02:28:27.525Z,93633.22
2023-03-14T02:30:55.068Z,93614.88
2023-03-14T02:33:24.121Z,93606.97
2023-03-14T02:35:58.039Z,93609.22
2023-03-14T02:38:31.111Z,93600.47
2023-03-14T02:40:58.631Z,93572.69
2023-03-14T02:43:27.675Z,93562.59
2023-03-14T02:45:55.996Z,93597.41
2023-03-14T02:48:26.910Z,93555.22
2023-03-14T02:50:57.458Z,93569.72
2023-03-14T02:53:28.079Z,93561.66
2023-03-14T02:55:55.523Z,93565.88
2023-03-14T02:58:23.155Z,93553.59
2023-03-14T03:00:52.304Z,93550.28
2023-03-14T03:03:20.005Z,93580.47
2023-03-14T03:05:51.266Z,93561.38
2023-03-14T03:08:18.951Z,93560.78
2023-03-14T03:10:46.444Z,93561.34
2023-03-14T03:13:14.291Z,93537.63
2023-03-14T03:15:41.848Z,93559.16
2023-03-14T03:18:11.060Z,93548.56
2023-03-14T03:20:39.146Z,93540.97
2023-03-14T03:23:07.110Z,93542.13
2023-03-14T03:25:34.658Z,93475.00
2023-03-14T03:28:02.147Z,93550.09
2023-03-14T03:30:29.792Z,93534.84
2023-03-14T03:32:57.310Z,93543.84
2023-03-14T03:35:26.226Z,93521.50
2023-03-14T03:37:53.680Z,93520.13
2023-03-14T03:40:21.157Z,93516.22
2023-03-14T03:42:48.598Z,93508.44
2023-03-14T03:45:16.250Z,93504.47
2023-03-14T03:47:43.706Z,93511.69
2023-03-14T03:50:12.212Z,93492.78
2023-03-14T03:52:41.000Z,93497.19
2023-03-14T03:55:09.338Z,93491.53
2023-03-14T03:57:37.060Z,93468.94
2023-03-14T04:00:06.199Z,93492.56
2023-03-14T04:02:33.812Z,93504.56
2023-03-14T04:05:01.371Z,93493.44
2023-03-14T04:07:29.142Z,93507.66
2023-03-14T04:09:57.971Z,93495.94
2023-03-14T04:12:25.738Z,93501.13
2023-03-14T04:14:53.238Z,93525.13
2023-03-14T04:17:21.781Z,93483.38
2023-03-14T04:19:52.327Z,93508.13
2023-03-14T04:22:19.873Z,93510.72
2023-03-14T04:24:47.405Z,93494.22
2023-03-14T04:27:16.499Z,93523.22
2023-03-14T04:29:43.983Z,93493.25
2023-03-14T04:32:11.555Z,93480.97
2023-03-14T04:34:39.308Z,93476.63
2023-03-14T04:37:06.806Z,93474.41
2023-03-14T04:39:34.286Z,93480.97
2023-03-14T04:42:01.748Z,93497.56
2023-03-14T04:44:30.689Z,93495.53
2023-03-14T04:46:58.271Z,93508.50
2023-03-14T04:49:25.989Z,93501.59
2023-03-14T04:51:53.627Z,93457.25
2023-03-14T04:54:21.124Z,93488.16
2023-03-14T04:56:48.612Z,93472.31
2023-03-14T04:59:16.154Z,93490.75
2023-03-14T05:01:44.997Z,93485.66
2023-03-14T05:04:12.480Z,93489.22
2023-03-14T05:06:40.458Z,93476.25
2023-03-14T05:09:07.949Z,93488.91
2023-03-14T05:11:35.659Z,93483.72
2023-03-14T05:14:03.169Z,93487.00
2023-03-14T05:16:30.656Z,93477.59
2023-03-14T05:18:59.579Z,93479.13
2023-03-14T05:21:27.045Z,93476.84
2023-03-14T05:23:54.510Z,93477.31
2023-03-14T05:26:22.008Z,93492.19
2023-03-14T05:28:49.468Z,93488.91
2023-03-14T05:31:16.940Z,93493.44
2023-03-14T05:33:44.437Z,93490.94
2023-03-14T05:36:13.259Z,93475.59
2023-03-14T05:38:40.709Z,93465.69
2023-03-14T05:41:08.396Z,93446.03
2023-03-14T05:43:35.872Z,93461.19
2023-03-14T05:46:03.428Z,93467.91
2023-03-14T05:48:30.992Z,93479.31
2023-03-14T05:51:00.209Z,93460.53
2023-03-14T05:53:29.933Z,93445.06
2023-03-14T05:55:58.418Z,93452.16
2023-03-14T05:58:26.002Z,93451.22
2023-03-14T06:00:53.550Z,93452.34
2023-03-14T06:03:21.049Z,93436.69
2023-03-14T06:05:51.386Z,93438.81
2023-03-14T06:08:18.902Z,93442.09
2023-03-14T06:10:47.818Z,93442.75
2023-03-14T06:13:16.243Z,93444.28
2023-03-14T06:15:43.745Z,93444.59
2023-03-14T06:18:11.287Z,93436.59
2023-03-14T06:20:39.931Z,93436.50
2023-03-14T06:23:07.498Z,93439.56
2023-03-14T06:25:35.185Z,93428.72
2023-03-14T06:28:04.098Z,93437.94
2023-03-14T06:30:31.768Z,93389.50
2023-03-14T06:32:59.323Z,93427.56
2023-03-14T06:35:28.621Z,93405.50
2023-03-14T06:37:56.042Z,93431.59
2023-03-14T06:40:23.501Z,93429.59
2023-03-14T06:42:51.026Z,93419.13
2023-03-14T06:45:19.895Z,93446.69
2023-03-14T06:47:47.393Z,93431.88
2023-03-14T06:50:14.846Z,93441.69
2023-03-14T06:52:46.987Z,93436.50
2023-03-14T06:55:14.478Z,93438.97
2023-03-14T06:57:42.464Z,93447.72
2023-03-14T07:00:11.033Z,93446.88
2023-03-14T07:02:43.092Z,93445.03
2023-03-14T07:05:12.111Z,93449.34
2023-03-14T07:07:39.607Z,93430.63
2023-03-14T07:10:09.566Z,93435.00
2023-03-14T07:12:36.985Z,93456.25
2023-03-14T07:15:17.737Z,93434.53
2023-03-14T07:17:48.854Z,93456.13
2023-03-14T07:20:16.574Z,93449.13
2023-03-14T07:22:44.046Z,93450.09
2023-03-14T07:25:13.023Z,93449.19
2023-03-14T07:27:40.529Z,93457.53
2023-03-14T07:30:08.913Z,93455.25
2023-03-14T07:32:36.377Z,93455.03
2023-03-14T07:35:05.803Z,93464.34
2023-03-14T07:37:33.231Z,93480.38
2023-03-14T07:40:00.653Z,93458.84
2023-03-14T07:42:28.249Z,93467.88
2023-03-14T07:44:55.652Z,93460.81
2023-03-14T07:47:23.076Z,93478.53
2023-03-14T07:49:50.482Z,93473.13
2023-03-14T07:52:19.278Z,93490.72
2023-03-14T07:54:46.693Z,93482.66
2023-03-14T07:57:14.113Z,93493.97
2023-03-14T07:59:41.554Z,93479.75
2023-03-14T08:02:12.792Z,93499.94
2023-03-14T08:04:40.855Z,93500.41
2023-03-14T08:07:08.378Z,93508.66
2023-03-14T08:09:37.130Z,93506.75
2023-03-14T08:12:04.944Z,93507.38
2023-03-14T08:14:32.457Z,93510.28
2023-03-14T08:16:59.922Z,93520.63
2023-03-14T08:19:27.506Z,93513.97
2023-03-14T08:21:55.136Z,93507.75
2023-03-14T08:24:22.549Z,93523.41
2023-03-14T08:26:51.326Z,93522.19
2023-03-14T08:29:18.755Z,93528.31
2023-03-14T08:31:46.274Z,93516.91
2023-03-14T08:34:13.774Z,93538.34
2023-03-14T08:36:41.248Z,93536.53
2023-03-14T08:39:09.028Z,93536.16
2023-03-14T08:41:42.035Z,93548.84
2023-03-14T08:44:12.336Z,93550.50
2023-03-14T08:46:39.987Z,93550.34
2023-03-14T08:49:07.525Z,93522.75
2023-03-14T08:51:35.019Z,93536.91
2023-03-14T08:54:02.463Z,93538.34
2023-03-14T08:56:29.902Z,93538.66
2023-03-14T08:58:57.340Z,93535.94
2023-03-14T09:01:27.167Z,93559.53
2023-03-14T09:03:54.709Z,93560.25
2023-03-14T09:06:22.269Z,93562.56
2023-03-14T09:08:49.736Z,93583.41
2023-03-14T09:11:18.680Z,93567.56
2023-03-14T09:13:46.616Z,93559.41
2023-03-14T09:16:14.170Z,93555.66
2023-03-14T09:18:42.995Z,93569.81
2023-03-14T09:21:10.432Z,93572.78
2023-03-14T09:23:37.884Z,93565.56
2023-03-14T09:26:05.578Z,93573.75
2023-03-14T09:28:33.023Z,93548.19
2023-03-14T09:31:07.319Z,93558.69
2023-03-14T09:33:34.766Z,93607.22
2023-03-14T09:36:04.501Z,93607.41
2023-03-14T09:38:33.876Z,93635.13
2023-03-14T09:41:04.529Z,93619.06
2023-03-14T09:43:35.374Z,93687.25
2023-03-14T09:46:04.526Z,93688.47
2023-03-14T09:48:34.959Z,93694.59
2023-03-14T09:51:09.175Z,93735.19
2023-03-14T09:53:41.259Z,93754.41
2023-03-14T09:56:15.218Z,93749.41
2023-03-14T09:58:44.310Z,93768.50
2023-03-14T10:01:15.695Z,93754.47
2023-03-14T10:03:46.349Z,93779.97
2023-03-14T10:06:16.117Z,93775.91
2023-03-14T10:08:44.866Z,93788.56
2023-03-14T10:11:17.075Z,93817.78
2023-03-14T10:14:06.634Z,93833.94
2023-03-14T10:16:35.799Z,93823.94
2023-03-14T10:19:05.697Z,93816.50
2023-03-14T10:21:39.471Z,93841.44
2023-03-14T10:24:22.778Z,93843.81
2023-03-14T10:26:53.652Z,93853.31
2023-03-14T10:29:22.472Z,93849.03
2023-03-14T10:31:53.472Z,93855.72
2023-03-14T10:34:27.245Z,93871.50
2023-03-14T10:36:57.695Z,93890.38
2023-03-14T10:39:32.363Z,93859.19
2023-03-14T10:42:06.310Z,93871.50
2023-03-14T10:44:36.371Z,93885.94
2023-03-14T10:47:06.174Z,93889.78
2023-03-14T10:49:35.478Z,93916.59
2023-03-14T10:52:15.989Z,93924.34
2023-03-14T10:54:49.420Z,93927.00
2023-03-14T10:57:16.897Z,93946.69
2023-03-14T10:59:45.380Z,93951.06
2023-03-14T11:02:34.642Z,93928.97
2023-03-14T11:05:12.925Z,93978.31
2023-03-14T11:07:43.372Z,93963.56
2023-03-14T11:10:20.752Z,93976.72
2023-03-14T11:13:03.104Z,94002.41
2023-03-14T11:15:36.112Z,94010.47
2023-03-14T11:18:29.161Z,93994.22
2023-03-14T11:21:01.409Z,94016.91
2023-03-14T11:23:38.675Z,93994.47
2023-03-14T11:26:19.427Z,94033.72
2023-03-14T11:28:50.810Z,94036.06
2023-03-14T11:31:23.176Z,94043.81
2023-03-14T11:33:58.868Z,94057.28
2023-03-14T11:36:32.489Z,94055.97
2023-03-14T11:39:02.006Z,94033.03
2023-03-14T11:41:34.741Z,94046.69
2023-03-14T11:44:07.140Z,94033.00
2023-03-14T11:46:39.108Z,94070.69
2023-03-14T11:49:13.658Z,94075.41
2023-03-14T11:51:45.468Z,94072.84
2023-03-14T11:54:20.415Z,94101.28
2023-03-14T11:56:52.728Z,94106.44
2023-03-14T11:59:23.534Z,94119.63
2023-03-14T12:01:56.285Z,94124.81
2023-03-14T12:04:44.866Z,94133.84
2023-03-14T12:07:20.946Z,94130.75
2023-03-14T12:09:51.424Z,94158.63
2023-03-14T12:12:21.896Z,94157.34
2023-03-14T12:14:56.519Z,94162.25
2023-03-14T12:17:26.983Z,94169.47
2023-03-14T12:20:08.102Z,94177.00
2023-03-14T12:22:37.750Z,94178.53
2023-03-14T12:25:16.560Z,94175.63
2023-03-14T12:27:50.795Z,94194.69
2023-03-14T12:30:31.846Z,94196.97
2023-03-14T12:33:33.224Z,94215.28
2023-03-14T12:36:20.727Z,94211.13
2023-03-14T12:38:57.908Z,94217.28
2023-03-14T12:41:31.621Z,94243.78
2023-03-14T12:44:39.610Z,94245.88
2023-03-14T12:47:43.102Z,94254.59
2023-03-14T12:50:18.019Z,94266.63
2023-03-14T12:52:59.615Z,94256.91
2023-03-14T12:55:35.494Z,94285.03
2023-03-14T12:58:10.048Z,94276.72
2023-03-14T13:00:41.984Z,94297.09
2023-03-14T13:03:23.149Z,94310.56
2023-03-14T13:05:55.308Z,94309.53
2023-03-14T13:08:38.894Z,94310.63
2023-03-14T13:11:10.704Z,94335.22
2023-03-14T13:13:45.516Z,94348.56
2023-03-14T13:16:18.731Z,94343.63
2023-03-14T13:18:48.010Z,94345.53
2023-03-14T13:21:20.459Z,94349.84
2023-03-14T13:23:59.883Z,94355.94
2023-03-14T13:26:35.601Z,94369.00
2023-03-14T13:29:17.040Z,94358.81
2023-03-14T13:31:46.522Z,94403.69
2023-03-14T13:34:14.361Z,94384.53
2023-03-14T13:36:41.894Z,94391.06
2023-03-14T13:39:14.606Z,94398.75
2023-03-14T13:41:42.165Z,94411.00
2023-03-14T13:44:18.499Z,94424.00
2023-03-14T13:46:46.130Z,94431.38
2023-03-14T13:49:21.159Z,94434.84
2023-03-14T13:51:48.607Z,94432.06
2023-03-14T13:54:17.181Z,94457.09
2023-03-14T13:56:44.834Z,94452.34
2023-03-14T13:59:24.758Z,94458.84
2023-03-14T14:01:53.732Z,94462.66
2023-03-14T14:04:23.976Z,94464.28
2023-03-14T14:06:54.761Z,94483.75
2023-03-14T14:09:25.723Z,94488.25
2023-03-14T14:12:14.267Z,94496.59
2023-03-14T14:14:47.302Z,94505.53
2023-03-14T14:17:18.785Z,94506.53
2023-03-14T14:19:47.862Z,94512.31
2023-03-14T14:22:15.691Z,94527.72
2023-03-14T14:24:43.483Z,94520.25
2023-03-14T14:27:15.614Z,94526.50
2023-03-14T14:29:46.480Z,94535.91
2023-03-14T14:32:16.109Z,94536.16
2023-03-14T14:34:50.259Z,94539.38
2023-03-14T14:37:27.798Z,94551.56
2023-03-14T14:39:59.331Z,94543.97
2023-03-14T14:42:30.239Z,94561.19
2023-03-14T14:45:00.662Z,94562.56
2023-03-14T14:47:30.328Z,94584.88
2023-03-14T14:50:02.458Z,94586.50
2023-03-14T14:52:38.577Z,94594.84
2023-03-14T14:55:15.065Z,94596.91
2023-03-14T14:57:43.143Z,94611.50
2023-03-14T15:00:21.169Z,94619.78
2023-03-14T15:02:50.720Z,94622.03
2023-03-14T15:05:20.174Z,94582.41
2023-03-14T15:07:47.917Z,94631.28
2023-03-14T15:10:18.469Z,94629.16
2023-03-14T15:12:46.166Z,94648.16
2023-03-14T15:15:17.373Z,94626.91
2023-03-14T15:17:45.058Z,94641.66
2023-03-14T15:20:15.036Z,94665.44
2023-03-14T15:22:42.997Z,94662.22
2023-03-14T15:25:31.627Z,94673.03
2023-03-14T15:27:59.245Z,94677.50
2023-03-14T15:30:28.052Z,94679.50
2023-03-14T15:32:55.516Z,94682.19
2023-03-14T15:35:22.988Z,94691.66
2023-03-14T15:37:50.463Z,94691.91
2023-03-14T15:40:19.450Z,94703.84
2023-03-14T15:42:47.174Z,94712.00
2023-03-14T15:45:14.635Z,94707.84
2023-03-14T15:47:43.389Z,94712.44
2023-03-14T15:50:11.993Z,94685.38
2023-03-14T15:52:40.058Z,94690.84
2023-03-14T15:55:07.973Z,94717.44
2023-03-14T15:57:35.414Z,94728.59
2023-03-14T16:00:05.170Z,94722.03
2023-03-14T16:02:32.663Z,94730.63
2023-03-14T16:05:01.500Z,94724.63
2023-03-14T16:07:29.008Z,94739.03
2023-03-14T16:09:56.470Z,94720.94
2023-03-14T16:12:23.920Z,94747.53
2023-03-14T16:14:51.418Z,94735.00
2023-03-14T16:17:18.856Z,94743.06
2023-03-14T16:19:46.531Z,94750.88
2023-03-14T16:22:15.311Z,94742.38
2023-03-14T16:24:43.042Z,94752.22
2023-03-14T16:27:10.612Z,94755.91
2023-03-14T16:29:38.041Z,94765.75
2023-03-14T16:32:06.726Z,94758.59
2023-03-14T16:34:34.239Z,94761.38
2023-03-14T16:37:01.691Z,94776.47
2023-03-14T16:39:32.241Z,94772.75
2023-03-14T16:41:59.767Z,94770.63
2023-03-14T16:44:27.226Z,94774.97
2023-03-14T16:46:54.670Z,94778.66
2023-03-14T16:49:22.133Z,94749.81
2023-03-14T16:51:49.588Z,94800.69
2023-03-14T16:54:17.014Z,94818.13
2023-03-14T16:56:47.822Z,94834.63
2023-03-14T17:01:47.751Z,94837.53
2023-03-14T17:04:15.263Z,94867.59
2023-03-14T17:06:45.242Z,94858.66
2023-03-14T17:09:12.787Z,94886.09
2023-03-14T17:11:40.443Z,94883.53
2023-03-14T17:14:09.214Z,94892.94
2023-03-14T17:16:36.686Z,94904.69
2023-03-14T17:19:04.159Z,94916.59
2023-03-14T17:21:31.630Z,94931.06
2023-03-14T17:23:59.038Z,94937.75
2023-03-14T17:26:26.559Z,94934.34
2023-03-14T17:28:54.055Z,94940.19
2023-03-14T17:31:24.016Z,94955.81
2023-03-14T17:33:52.655Z,94960.38
2023-03-14T17:36:21.314Z,94972.63
2023-03-14T17:38:49.366Z,94977.06
2023-03-14T17:41:17.490Z,94960.22
2023-03-14T17:43:45.875Z,94964.50
2023-03-14T17:46:16.761Z,95007.03
2023-03-14T17:48:47.107Z,95005.41
2023-03-14T17:51:15.320Z,94994.22
2023-03-14T17:53:42.951Z,94981.38
2023-03-14T17:56:11.768Z,94942.72
2023-03-14T17:58:39.791Z,94975.63
2023-03-14T18:01:12.059Z,94994.50
2023-03-14T18:03:39.845Z,94997.03
2023-03-14T18:06:10.599Z,95004.88
2023-03-14T18:08:38.449Z,95013.72
2023-03-14T18:11:07.114Z,95015.28
2023-03-14T18:13:36.788Z,94997.38
2023-03-14T18:16:07.122Z,95004.31
2023-03-14T18:18:35.065Z,95017.47
2023-03-14T18:21:02.637Z,95016.06
2023-03-14T18:23:32.934Z,95028.13
2023-03-14T18:26:01.351Z,95029.13
2023-03-14T18:28:30.124Z,95034.44
2023-03-14T18:31:02.300Z,95033.31
2023-03-14T18:33:30.141Z,95025.31
2023-03-14T18:35:57.790Z,94998.84
2023-03-14T18:38:25.391Z,95045.56
2023-03-14T18:40:54.326Z,95047.78
2023-03-14T18:43:22.018Z,95060.03
2023-03-14T18:45:49.732Z,95066.78
2023-03-14T18:48:17.889Z,95000.06
2023-03-14T18:50:45.549Z,95069.75
2023-03-14T18:53:13.227Z,95088.88
2023-03-14T18:55:41.012Z,95028.63
2023-03-14T18:58:10.120Z,95094.22
2023-03-14T19:00:38.276Z,95072.19
2023-03-14T19:03:05.997Z,95104.84
2023-03-14T19:05:33.638Z,95106.25
2023-03-14T19:08:02.836Z,95116.09
2023-03-14T19:10:33.290Z,95046.97
2023-03-14T19:13:00.854Z,95074.91
2023-03-14T19:15:32.370Z,95121.50
2023-03-14T19:18:00.000Z,95126.44
2023-03-14T19:20:30.799Z,95096.00
2023-03-14T19:22:58.537Z,95066.50
2023-03-14T19:25:26.203Z,95118.19
2023-03-14T19:27:53.837Z,95157.41
2023-03-14T19:30:26.795Z,95099.84
2023-03-14T19:32:55.820Z,95137.38
2023-03-14T19:35:23.382Z,95107.50
2023-03-14T19:37:51.060Z,95113.41
2023-03-14T19:40:19.290Z,95161.41
2023-03-14T19:42:46.911Z,95157.91
2023-03-14T19:45:14.453Z,95104.06
2023-03-14T19:47:42.064Z,95173.22
2023-03-14T19:50:12.796Z,95189.03
2023-03-14T19:52:43.965Z,95186.88
2023-03-14T19:55:12.559Z,95142.66
2023-03-14T19:57:40.398Z,95198.56
2023-03-14T20:00:17.025Z,95199.13
2023-03-14T20:02:44.735Z,95205.66
2023-03-14T20:05:17.120Z,95199.78
2023-03-14T20:07:46.867Z,95195.69
2023-03-14T20:10:16.903Z,95142.78
2023-03-14T20:12:44.495Z,95223.44
2023-03-14T20:15:16.568Z,95223.44
2023-03-14T20:17:44.313Z,95236.50
2023-03-14T20:20:14.240Z,95237.84
2023-03-14T20:22:41.851Z,95231.59
2023-03-14T20:25:13.240Z,95232.59
2023-03-14T20:27:41.941Z,95256.44
2023-03-14T20:30:13.222Z,95250.38
2023-03-14T20:32:41.018Z,95254.69
2023-03-14T20:35:11.870Z,95211.06
2023-03-14T20:37:41.758Z,95247.66
2023-03-14T20:40:11.229Z,95275.25
2023-03-14T20:42:39.239Z,95283.94
2023-03-14T20:45:08.349Z,95248.31
2023-03-14T20:47:41.869Z,95210.75
2023-03-14T20:50:11.693Z,95203.88
2023-03-14T20:52:41.784Z,95253.69
2023-03-14T20:55:10.130Z,95300.97
2023-03-14T20:57:38.185Z,95286.41
2023-03-14T21:00:07.968Z,95309.84
2023-03-14T21:02:36.292Z,95229.91
2023-03-14T21:05:06.672Z,95281.88
2023-03-14T21:07:41.175Z,95263.97
2023-03-14T21:10:13.047Z,95329.38
2023-03-14T21:12:41.457Z,95313.97
2023-03-14T21:15:14.193Z,95309.47
2023-03-14T21:17:42.488Z,95319.31
2023-03-14T21:20:11.407Z,95332.13
2023-03-14T21:22:39.920Z,95315.19
2023-03-14T21:25:22.232Z,95335.66
2023-03-14T21:27:54.300Z,95307.50
2023-03-14T21:30:22.400Z,95313.63
2023-03-14T21:32:50.301Z,95332.91
2023-03-14T21:35:18.404Z,95308.66
2023-03-14T21:37:46.447Z,95312.81
2023-03-14T21:40:15.450Z,95305.72
2023-03-14T21:42:43.120Z,95344.72
2023-03-14T21:45:13.471Z,95344.94
2023-03-14T21:47:45.172Z,95333.69
2023-03-14T21:50:14.923Z,95354.38
2023-03-14T21:52:46.054Z,95363.41
2023-03-14T21:55:17.285Z,95364.41
2023-03-14T21:57:46.233Z,95369.09
2023-03-14T22:00:17.551Z,95376.78
2023-03-14T22:02:53.895Z,95372.59
2023-03-14T22:05:30.954Z,95376.94
2023-03-14T22:07:58.473Z,95351.25
2023-03-14T22:10:26.096Z,95381.81
2023-03-14T22:12:55.899Z,95392.97
2023-03-14T22:15:24.704Z,95397.50
2023-03-14T22:17:52.172Z,95400.44
2023-03-14T22:20:19.768Z,95408.88
2023-03-14T22:22:47.250Z,95403.59
2023-03-14T22:25:14.717Z,95399.06
2023-03-14T22:27:42.195Z,95402.25
2023-03-14T22:30:11.231Z,95374.44
2023-03-14T22:32:40.100Z,95405.84
2023-03-14T22:35:08.046Z,95409.22
2023-03-14T22:37:35.490Z,95411.00
2023-03-14T22:40:03.210Z,95398.00
2023-03-14T22:42:30.681Z,95404.50
2023-03-14T22:44:58.194Z,95402.94
2023-03-14T22:47:25.638Z,95408.06
2023-03-14T22:49:54.442Z,95417.53
2023-03-14T22:52:21.874Z,95361.09
2023-03-14T22:54:49.313Z,95410.03
2023-03-14T22:57:16.800Z,95415.72
2023-03-14T22:59:44.310Z,95425.00
2023-03-14T23:02:11.915Z,95430.91
2023-03-14T23:04:39.470Z,95372.53
2023-03-14T23:07:08.449Z,95393.03
2023-03-14T23:09:35.929Z,95419.81
2023-03-14T23:12:03.417Z,95426.94
2023-03-14T23:14:31.431Z,95430.06
2023-03-14T23:16:58.970Z,95428.47
2023-03-14T23:19:26.544Z,95390.03
2023-03-14T23:21:54.110Z,95426.28
2023-03-14T23:24:23.157Z,95424.28
2023-03-14T23:26:51.561Z,95398.84
2023-03-14T23:29:19.096Z,95428.72
2023-03-14T23:31:46.598Z,95438.59
2023-03-14T23:34:14.091Z,95411.13
2023-03-14T23:36:41.574Z,95456.31
2023-03-14T23:39:09.635Z,95455.34
2023-03-14T23:41:38.748Z,95453.41
2023-03-14T23:44:06.284Z,95443.78
2023-03-14T23:46:33.813Z,95409.06
2023-03-14T23:49:01.283Z,95392.72
2023-03-14T23:51:28.983Z,95433.38
2023-03-14T23:53:56.438Z,95446.38
2023-03-14T23:56:23.941Z,95453.06
2023-03-14T23:58:53.883Z,95449.31
